Time;durP1;ratioP1;P1;durP2;ratioP2;P2;SDS_P1;SDS_P2;PMS_P1;PMS_P2;Temp;Humidity;BMP_temperature;BMP_pressure;BME280_temperature;BME280_humidity;BME280_pressure;Samples;Min_cycle;Max_cycle;Signal;HPM_P1;HPM_P2
2023/08/15 00:02:05;;;;;;;6.83;4.27;;;;;;;;;;5080688;28;20457;-67
2023/08/15 00:04:35;;;;;;;5.00;3.70;;;;;;;;;;5068787;28;20460;-68
2023/08/15 00:07:04;;;;;;;10.07;3.67;;;;;;;;;;5078569;28;20504;-68
2023/08/15 00:09:31;;;;;;;5.50;3.40;;;;;;;;;;5080998;28;20475;-67
2023/08/15 00:11:58;;;;;;;6.60;3.57;;;;;;;;;;5055506;28;20497;-67
2023/08/15 00:14:25;;;;;;;7.57;3.30;;;;;;;;;;5073810;28;20453;-67
2023/08/15 00:16:53;;;;;;;4.33;3.10;;;;;;;;;;5080886;28;20432;-68
2023/08/15 00:19:20;;;;;;;5.37;3.73;;;;;;;;;;5070960;28;20447;-67
2023/08/15 00:21:48;;;;;;;4.03;3.37;;;;;;;;;;5069764;28;20854;-67
2023/08/15 00:24:15;;;;;;;4.37;3.57;;;;;;;;;;5073987;28;21010;-67
2023/08/15 00:26:42;;;;;;;4.77;3.43;;;;;;;;;;5074674;28;20460;-68
2023/08/15 00:29:09;;;;;;;5.97;3.70;;;;;;;;;;5053630;28;20500;-68
2023/08/15 00:31:36;;;;;;;4.97;3.17;;;;;;;;;;5080135;28;20476;-67
2023/08/15 00:34:03;;;;;;;6.10;4.23;;;;;;;;;;5070166;28;20464;-67
2023/08/15 00:36:30;;;;;;;3.80;3.10;;;;;;;;;;5078962;28;20463;-68
2023/08/15 00:39:02;;;;;;;4.93;3.53;;;;;;;;;;5078360;28;20457;-66
2023/08/15 00:41:29;;;;;;;4.10;3.40;;;;;;;;;;5080820;28;20542;-68
2023/08/15 00:43:56;;;;;;;4.80;3.27;;;;;;;;;;5087735;28;20851;-67
2023/08/15 00:46:24;;;;;;;3.40;2.60;;;;;;;;;;5084425;28;20487;-68
2023/08/15 00:48:51;;;;;;;4.47;3.20;;;;;;;;;;5084024;28;20469;-68
2023/08/15 00:51:18;;;;;;;4.70;3.47;;;;;;;;;;5086193;28;20440;-68
2023/08/15 00:53:45;;;;;;;7.70;4.23;;;;;;;;;;5082465;28;20437;-67
2023/08/15 00:56:15;;;;;;;5.97;3.83;;;;;;;;;;5079695;28;20456;-68
2023/08/15 00:58:42;;;;;;;7.30;3.43;;;;;;;;;;5088107;28;20930;-68
2023/08/15 01:01:10;;;;;;;4.00;3.03;;;;;;;;;;5087302;28;20455;-68
2023/08/15 01:03:37;;;;;;;6.40;3.70;;;;;;;;;;5081206;28;20437;-67
2023/08/15 01:06:04;;;;;;;4.20;3.07;;;;;;;;;;5079592;28;20514;-66
2023/08/15 01:08:32;;;;;;;4.53;3.20;;;;;;;;;;5086245;28;20480;-67
2023/08/15 01:10:59;;;;;;;3.33;2.17;;;;;;;;;;5083510;28;20436;-66
2023/08/15 01:13:30;;;;;;;10.03;3.10;;;;;;;;;;5084860;28;20460;-67
2023/08/15 01:15:58;;;;;;;4.10;2.83;;;;;;;;;;5084831;28;20464;-67
2023/08/15 01:18:27;;;;;;;5.83;3.27;;;;;;;;;;5080025;28;20453;-68
2023/08/15 01:20:55;;;;;;;4.27;3.30;;;;;;;;;;5091040;28;20437;-68
2023/08/15 01:23:25;;;;;;;3.50;2.93;;;;;;;;;;5083745;28;20986;-67
2023/08/15 01:25:55;;;;;;;6.87;3.70;;;;;;;;;;5086788;28;20460;-68
2023/08/15 01:28:23;;;;;;;4.67;2.90;;;;;;;;;;5075199;28;20466;-68
2023/08/15 01:30:52;;;;;;;4.20;2.90;;;;;;;;;;5084589;28;20433;-68
2023/08/15 01:33:24;;;;;;;4.23;3.00;;;;;;;;;;5074734;28;20484;-67
2023/08/15 01:35:55;;;;;;;5.57;3.53;;;;;;;;;;5079767;28;20454;-68
2023/08/15 01:38:25;;;;;;;4.93;3.37;;;;;;;;;;5087058;28;20503;-68
2023/08/15 01:40:55;;;;;;;5.13;3.20;;;;;;;;;;5082896;28;20446;-67
2023/08/15 01:43:22;;;;;;;4.10;3.07;;;;;;;;;;5077608;28;20476;-68
2023/08/15 01:45:49;;;;;;;4.20;3.47;;;;;;;;;;5080092;28;20528;-67
2023/08/15 01:48:16;;;;;;;5.13;3.40;;;;;;;;;;5080089;28;20457;-67
2023/08/15 01:50:43;;;;;;;4.10;3.20;;;;;;;;;;5080138;28;20835;-67
2023/08/15 01:53:10;;;;;;;6.40;3.93;;;;;;;;;;5079936;28;20813;-68
2023/08/15 01:55:37;;;;;;;4.37;3.77;;;;;;;;;;5079134;28;20532;-68
2023/08/15 01:58:06;;;;;;;4.03;3.10;;;;;;;;;;5084629;28;20441;-68
2023/08/15 02:00:33;;;;;;;4.43;3.17;;;;;;;;;;5078517;28;20456;-66
2023/08/15 02:03:00;;;;;;;3.90;3.20;;;;;;;;;;5083190;28;20456;-68
2023/08/15 02:05:27;;;;;;;4.13;3.23;;;;;;;;;;5078098;28;20453;-68
2023/08/15 02:07:54;;;;;;;4.30;3.03;;;;;;;;;;5084632;28;20962;-68
2023/08/15 02:10:21;;;;;;;4.70;3.73;;;;;;;;;;5085276;28;20530;-69
2023/08/15 02:12:48;;;;;;;4.27;3.30;;;;;;;;;;5086867;28;20941;-68
2023/08/15 02:15:16;;;;;;;5.13;3.70;;;;;;;;;;5084638;28;20464;-67
2023/08/15 02:17:43;;;;;;;4.80;2.70;;;;;;;;;;5085022;28;20931;-69
2023/08/15 02:20:10;;;;;;;5.30;3.30;;;;;;;;;;5077662;28;20802;-67
2023/08/15 02:22:37;;;;;;;5.13;3.53;;;;;;;;;;5086837;28;20463;-67
2023/08/15 02:25:04;;;;;;;4.33;3.57;;;;;;;;;;5079440;28;20453;-68
2023/08/15 02:27:31;;;;;;;5.53;3.83;;;;;;;;;;5085943;28;20514;-67
2023/08/15 02:29:58;;;;;;;7.57;3.77;;;;;;;;;;5076227;28;20488;-68
2023/08/15 02:32:27;;;;;;;4.70;3.23;;;;;;;;;;5083582;28;20533;-67
2023/08/15 02:34:54;;;;;;;7.00;4.40;;;;;;;;;;5078042;28;20465;-67
2023/08/15 02:37:21;;;;;;;4.27;3.60;;;;;;;;;;5081584;28;20448;-67
2023/08/15 02:39:48;;;;;;;7.90;4.80;;;;;;;;;;5082197;28;20437;-67
2023/08/15 02:42:15;;;;;;;5.50;3.50;;;;;;;;;;5085858;28;20448;-66
2023/08/15 02:44:43;;;;;;;5.27;3.60;;;;;;;;;;5082827;28;20531;-67
2023/08/15 02:47:10;;;;;;;6.30;3.87;;;;;;;;;;5082396;28;20445;-67
2023/08/15 02:49:39;;;;;;;4.33;3.37;;;;;;;;;;5082127;28;20837;-67
2023/08/15 02:52:06;;;;;;;5.30;3.87;;;;;;;;;;5082872;28;20508;-68
2023/08/15 02:54:33;;;;;;;5.33;3.77;;;;;;;;;;5081006;28;20444;-67
2023/08/15 02:57:00;;;;;;;4.07;3.00;;;;;;;;;;5082195;28;20472;-67
2023/08/15 02:59:27;;;;;;;4.10;3.67;;;;;;;;;;5086108;28;20439;-67
2023/08/15 03:01:54;;;;;;;5.40;3.30;;;;;;;;;;5082142;28;20533;-67
2023/08/15 03:04:21;;;;;;;4.80;3.13;;;;;;;;;;5081069;28;20452;-66
2023/08/15 03:06:50;;;;;;;4.50;3.27;;;;;;;;;;5080245;28;20452;-68
2023/08/15 03:09:17;;;;;;;5.00;3.87;;;;;;;;;;5079037;28;20461;-67
2023/08/15 03:11:44;;;;;;;5.17;3.37;;;;;;;;;;5080982;28;20457;-67
2023/08/15 03:14:11;;;;;;;8.20;3.37;;;;;;;;;;5081203;28;20433;-68
2023/08/15 03:16:38;;;;;;;5.30;3.97;;;;;;;;;;5073277;28;20460;-67
2023/08/15 03:19:05;;;;;;;4.13;2.97;;;;;;;;;;5082471;28;20458;-67
2023/08/15 03:21:32;;;;;;;4.40;3.87;;;;;;;;;;5082646;28;20993;-67
2023/08/15 03:24:01;;;;;;;6.27;3.40;;;;;;;;;;5086891;28;20432;-68
2023/08/15 03:26:28;;;;;;;4.00;3.20;;;;;;;;;;5072963;28;20444;-67
2023/08/15 03:28:56;;;;;;;5.33;3.60;;;;;;;;;;5084826;28;20500;-67
2023/08/15 03:31:23;;;;;;;4.97;3.10;;;;;;;;;;5084342;28;20893;-68
2023/08/15 03:33:50;;;;;;;9.07;3.70;;;;;;;;;;5080774;28;20462;-67
2023/08/15 03:36:18;;;;;;;4.53;3.70;;;;;;;;;;5080511;28;20457;-67
2023/08/15 03:38:45;;;;;;;5.27;3.90;;;;;;;;;;5085103;28;20816;-68
2023/08/15 03:41:14;;;;;;;5.63;3.37;;;;;;;;;;5082003;28;20437;-67
2023/08/15 03:43:41;;;;;;;4.40;3.50;;;;;;;;;;5082163;28;20460;-67
2023/08/15 03:46:08;;;;;;;4.43;3.90;;;;;;;;;;5084187;28;20452;-68
2023/08/15 03:48:35;;;;;;;3.90;2.63;;;;;;;;;;5084053;28;20515;-67
2023/08/15 03:51:03;;;;;;;5.47;4.30;;;;;;;;;;5079113;28;20829;-67
2023/08/15 03:53:30;;;;;;;4.63;3.33;;;;;;;;;;5081805;28;20453;-67
2023/08/15 03:55:57;;;;;;;8.07;4.50;;;;;;;;;;5086378;28;20467;-68
2023/08/15 03:58:25;;;;;;;5.00;3.30;;;;;;;;;;5082210;28;20445;-67
2023/08/15 04:00:53;;;;;;;4.43;3.60;;;;;;;;;;5077603;28;20922;-67
2023/08/15 04:03:20;;;;;;;6.00;3.53;;;;;;;;;;5082575;28;20473;-68
2023/08/15 04:05:48;;;;;;;5.70;3.70;;;;;;;;;;5074548;28;20457;-67
2023/08/15 04:08:16;;;;;;;5.13;3.67;;;;;;;;;;5080435;28;20465;-68
2023/08/15 04:10:45;;;;;;;5.20;3.63;;;;;;;;;;5080008;28;20477;-68
2023/08/15 04:13:13;;;;;;;5.17;4.60;;;;;;;;;;5080557;28;20473;-68
2023/08/15 04:15:41;;;;;;;6.17;3.43;;;;;;;;;;5089916;28;20440;-67
2023/08/15 04:18:09;;;;;;;7.27;3.63;;;;;;;;;;5086374;28;20441;-68
2023/08/15 04:20:37;;;;;;;6.43;3.47;;;;;;;;;;5084046;28;20454;-68
2023/08/15 04:23:05;;;;;;;4.37;3.50;;;;;;;;;;5082122;28;20572;-67
2023/08/15 04:25:32;;;;;;;4.93;3.47;;;;;;;;;;5081879;28;20539;-68
2023/08/15 04:27:59;;;;;;;4.80;3.40;;;;;;;;;;5088714;28;20943;-69
2023/08/15 04:30:26;;;;;;;5.80;3.30;;;;;;;;;;5074953;28;21068;-68
2023/08/15 04:32:55;;;;;;;5.17;3.83;;;;;;;;;;5083568;28;20484;-68
2023/08/15 04:35:24;;;;;;;5.30;4.13;;;;;;;;;;5084014;28;20490;-68
2023/08/15 04:37:51;;;;;;;4.50;3.47;;;;;;;;;;5084156;28;20912;-68
2023/08/15 04:40:22;;;;;;;10.63;4.13;;;;;;;;;;5085910;28;20547;-67
2023/08/15 04:42:49;;;;;;;4.20;3.47;;;;;;;;;;5085802;28;20477;-67
2023/08/15 04:45:16;;;;;;;6.47;3.87;;;;;;;;;;5090127;28;20694;-68
2023/08/15 04:47:43;;;;;;;4.70;3.83;;;;;;;;;;5085614;28;20437;-68
2023/08/15 04:50:12;;;;;;;6.67;4.13;;;;;;;;;;5083275;28;20480;-68
2023/08/15 04:52:39;;;;;;;5.17;3.70;;;;;;;;;;5083230;28;20869;-68
2023/08/15 04:55:10;;;;;;;5.07;3.60;;;;;;;;;;5089649;28;20435;-68
2023/08/15 04:57:37;;;;;;;4.80;3.90;;;;;;;;;;5084636;28;20430;-68
2023/08/15 05:00:08;;;;;;;4.57;3.37;;;;;;;;;;5083803;28;20825;-68
2023/08/15 05:02:36;;;;;;;4.40;3.20;;;;;;;;;;5081715;28;20568;-68
2023/08/15 05:05:03;;;;;;;5.37;3.80;;;;;;;;;;5082129;28;20467;-68
2023/08/15 05:07:31;;;;;;;4.63;3.30;;;;;;;;;;5082860;28;20471;-67
2023/08/15 05:09:58;;;;;;;4.13;3.73;;;;;;;;;;5085264;28;20476;-68
2023/08/15 05:12:25;;;;;;;4.33;3.20;;;;;;;;;;5081684;28;20523;-67
2023/08/15 05:14:52;;;;;;;6.70;3.60;;;;;;;;;;5089466;28;20447;-67
2023/08/15 05:17:20;;;;;;;6.20;4.73;;;;;;;;;;5085431;28;20444;-70
2023/08/15 05:19:47;;;;;;;5.57;3.60;;;;;;;;;;5089110;28;20429;-68
2023/08/15 05:22:14;;;;;;;3.90;3.07;;;;;;;;;;5081049;28;20522;-68
2023/08/15 05:24:42;;;;;;;7.73;3.87;;;;;;;;;;5088394;28;20911;-68
2023/08/15 05:27:12;;;;;;;5.80;4.63;;;;;;;;;;5085093;28;20772;-68
2023/08/15 05:29:41;;;;;;;3.73;3.33;;;;;;;;;;5086634;28;20468;-68
2023/08/15 05:32:09;;;;;;;5.40;4.20;;;;;;;;;;5081387;28;20476;-68
2023/08/15 05:34:36;;;;;;;5.13;3.27;;;;;;;;;;5085424;28;20447;-69
2023/08/15 05:37:03;;;;;;;5.87;3.47;;;;;;;;;;5081933;28;20506;-68
2023/08/15 05:39:30;;;;;;;6.60;4.73;;;;;;;;;;5078003;28;20452;-68
2023/08/15 05:41:58;;;;;;;5.10;3.20;;;;;;;;;;5077160;28;20486;-67
2023/08/15 05:44:25;;;;;;;10.67;3.67;;;;;;;;;;5088371;28;20432;-68
2023/08/15 05:46:52;;;;;;;7.37;3.73;;;;;;;;;;5082325;28;20441;-68
2023/08/15 05:49:19;;;;;;;5.17;3.70;;;;;;;;;;5085727;28;20444;-68
2023/08/15 05:51:46;;;;;;;6.07;4.13;;;;;;;;;;5082600;28;20500;-71
2023/08/15 05:54:13;;;;;;;5.10;3.93;;;;;;;;;;5085412;28;20800;-68
2023/08/15 05:56:41;;;;;;;4.50;3.53;;;;;;;;;;5087615;28;20437;-70
2023/08/15 05:59:09;;;;;;;4.73;3.30;;;;;;;;;;5086401;28;20480;-69
2023/08/15 06:01:36;;;;;;;5.17;3.67;;;;;;;;;;5077502;28;20477;-70
2023/08/15 06:04:03;;;;;;;4.07;3.50;;;;;;;;;;5082953;28;20869;-70
2023/08/15 06:06:31;;;;;;;4.53;3.40;;;;;;;;;;5080923;28;20530;-69
2023/08/15 06:08:58;;;;;;;4.00;3.10;;;;;;;;;;5087656;28;20884;-68
2023/08/15 06:11:25;;;;;;;10.63;4.40;;;;;;;;;;5082651;28;20481;-68
2023/08/15 06:13:52;;;;;;;5.27;3.60;;;;;;;;;;5084545;28;20461;-67
2023/08/15 06:16:22;;;;;;;4.50;3.43;;;;;;;;;;5078017;28;20437;-68
2023/08/15 06:18:49;;;;;;;4.97;3.50;;;;;;;;;;5082286;28;20434;-68
2023/08/15 06:21:16;;;;;;;4.63;3.60;;;;;;;;;;5079509;28;20829;-68
2023/08/15 06:23:43;;;;;;;4.60;3.63;;;;;;;;;;5082895;28;20570;-68
2023/08/15 06:26:10;;;;;;;4.27;3.20;;;;;;;;;;5081434;28;20817;-69
2023/08/15 06:28:38;;;;;;;10.23;4.13;;;;;;;;;;5083125;28;20438;-70
2023/08/15 06:31:06;;;;;;;4.10;3.70;;;;;;;;;;5081412;28;20479;-68
2023/08/15 06:33:35;;;;;;;7.30;4.10;;;;;;;;;;5073921;28;21003;-67
2023/08/15 06:36:02;;;;;;;8.50;3.50;;;;;;;;;;5085145;28;20462;-69
2023/08/15 06:38:29;;;;;;;6.20;4.00;;;;;;;;;;5079486;28;20977;-69
2023/08/15 06:40:58;;;;;;;6.33;4.03;;;;;;;;;;5085694;28;20436;-68
2023/08/15 06:43:25;;;;;;;5.10;3.43;;;;;;;;;;5074445;28;20595;-69
2023/08/15 06:45:52;;;;;;;8.90;3.77;;;;;;;;;;5063894;28;20496;-68
2023/08/15 06:48:19;;;;;;;4.80;3.87;;;;;;;;;;5082846;28;20920;-68
2023/08/15 06:50:48;;;;;;;4.60;3.90;;;;;;;;;;5076150;28;20515;-69
2023/08/15 06:53:15;;;;;;;4.50;3.57;;;;;;;;;;5081337;28;20504;-69
2023/08/15 06:55:42;;;;;;;4.07;3.33;;;;;;;;;;5083816;28;20527;-68
2023/08/15 06:58:12;;;;;;;4.90;3.60;;;;;;;;;;5085456;28;20440;-69
2023/08/15 07:00:39;;;;;;;7.80;4.20;;;;;;;;;;5081094;28;20830;-68
2023/08/15 07:03:07;;;;;;;5.70;4.30;;;;;;;;;;5078266;28;20849;-69
2023/08/15 07:05:34;;;;;;;7.00;4.90;;;;;;;;;;5084555;28;20447;-69
2023/08/15 07:08:03;;;;;;;6.93;4.17;;;;;;;;;;5076401;28;20469;-69
2023/08/15 07:10:30;;;;;;;4.53;3.63;;;;;;;;;;5079658;28;20485;-69
2023/08/15 07:12:57;;;;;;;4.60;3.90;;;;;;;;;;5081168;28;20786;-69
2023/08/15 07:15:24;;;;;;;5.60;4.20;;;;;;;;;;5075505;28;20460;-70
2023/08/15 07:17:51;;;;;;;4.93;3.70;;;;;;;;;;5083862;28;20468;-68
2023/08/15 07:20:19;;;;;;;4.73;4.13;;;;;;;;;;5083381;28;20834;-69
2023/08/15 07:22:47;;;;;;;4.70;3.90;;;;;;;;;;5068754;28;20571;-70
2023/08/15 07:25:15;;;;;;;4.73;3.83;;;;;;;;;;5073166;28;20453;-70
2023/08/15 07:27:42;;;;;;;5.77;3.20;;;;;;;;;;5076670;28;20460;-69
2023/08/15 07:30:11;;;;;;;5.13;4.63;;;;;;;;;;5076113;28;20993;-70
2023/08/15 07:32:38;;;;;;;5.17;3.70;;;;;;;;;;5074050;28;20495;-68
2023/08/15 07:35:07;;;;;;;4.13;3.70;;;;;;;;;;5078592;28;20459;-69
2023/08/15 07:37:34;;;;;;;4.10;3.00;;;;;;;;;;5057801;28;20444;-69
2023/08/15 07:40:08;;;;;;;4.63;3.20;;;;;;;;;;5081470;28;20495;-70
2023/08/15 07:42:36;;;;;;;3.80;2.97;;;;;;;;;;5075953;28;20485;-70
2023/08/15 07:45:04;;;;;;;3.57;3.03;;;;;;;;;;5085261;28;20451;-69
2023/08/15 07:47:34;;;;;;;3.93;3.10;;;;;;;;;;5086286;28;20436;-70
2023/08/15 07:50:13;;;;;;;4.30;2.80;;;;;;;;;;5084879;28;20472;-69
2023/08/15 07:52:40;;;;;;;5.93;3.90;;;;;;;;;;5083181;28;20515;-70
2023/08/15 07:55:07;;;;;;;5.13;3.00;;;;;;;;;;5085145;28;20455;-70
2023/08/15 07:57:34;;;;;;;3.70;2.90;;;;;;;;;;5090264;28;20436;-70
2023/08/15 08:00:03;;;;;;;7.23;3.77;;;;;;;;;;5085964;28;20441;-70
2023/08/15 08:02:30;;;;;;;4.10;3.43;;;;;;;;;;5083528;28;20973;-70
2023/08/15 08:04:58;;;;;;;3.43;3.13;;;;;;;;;;5085032;28;20461;-71
2023/08/15 08:07:25;;;;;;;5.07;3.50;;;;;;;;;;5105057;22;20591;-70
2023/08/15 08:09:52;;;;;;;5.77;3.53;;;;;;;;;;5089086;28;20439;-70
2023/08/15 08:12:19;;;;;;;3.57;3.03;;;;;;;;;;5080123;28;20495;-70
2023/08/15 08:14:46;;;;;;;4.23;3.03;;;;;;;;;;5082227;28;20481;-72
2023/08/15 08:17:14;;;;;;;4.70;3.63;;;;;;;;;;5085089;28;20904;-70
2023/08/15 08:19:42;;;;;;;6.00;3.83;;;;;;;;;;5080717;28;20537;-70
2023/08/15 08:22:09;;;;;;;4.37;3.53;;;;;;;;;;5080343;28;20979;-69
2023/08/15 08:24:36;;;;;;;4.07;3.03;;;;;;;;;;5081693;28;20460;-69
2023/08/15 08:27:04;;;;;;;4.47;3.03;;;;;;;;;;5081088;28;20440;-71
2023/08/15 08:29:31;;;;;;;4.53;2.90;;;;;;;;;;5081121;28;20443;-69
2023/08/15 08:31:58;;;;;;;5.17;3.83;;;;;;;;;;5080751;28;20480;-72
2023/08/15 08:34:27;;;;;;;4.57;3.40;;;;;;;;;;5084409;28;20452;-70
2023/08/15 08:36:54;;;;;;;4.17;3.47;;;;;;;;;;5081075;28;20450;-70
2023/08/15 08:39:21;;;;;;;4.93;3.47;;;;;;;;;;5080585;28;20852;-69
2023/08/15 08:41:48;;;;;;;5.30;4.00;;;;;;;;;;5081947;28;20448;-69
2023/08/15 08:44:18;;;;;;;7.23;3.50;;;;;;;;;;5081076;28;20888;-72
2023/08/15 08:46:45;;;;;;;3.80;3.40;;;;;;;;;;5078419;28;20807;-70
2023/08/15 08:49:13;;;;;;;3.73;3.07;;;;;;;;;;5082043;28;20445;-69
2023/08/15 08:51:41;;;;;;;3.67;3.00;;;;;;;;;;5082305;28;20479;-69
2023/08/15 08:54:08;;;;;;;6.10;3.30;;;;;;;;;;5073529;28;20498;-69
2023/08/15 08:56:35;;;;;;;5.33;3.30;;;;;;;;;;5079031;28;20428;-70
2023/08/15 08:59:04;;;;;;;4.73;2.97;;;;;;;;;;5086244;28;20433;-71
2023/08/15 09:01:32;;;;;;;4.70;3.57;;;;;;;;;;5082889;28;20455;-70
2023/08/15 09:03:58;;;;;;;4.90;3.70;;;;;;;;;;5069752;28;20199;-70
2023/08/15 09:06:26;;;;;;;3.60;3.00;;;;;;;;;;5075921;28;20880;-71
2023/08/15 09:08:57;;;;;;;4.20;3.23;;;;;;;;;;5079589;28;20530;-70
2023/08/15 09:11:24;;;;;;;4.00;3.20;;;;;;;;;;5083369;28;20476;-69
2023/08/15 09:13:51;;;;;;;3.60;2.90;;;;;;;;;;5079181;28;20586;-71
2023/08/15 09:16:18;;;;;;;3.63;3.23;;;;;;;;;;5077161;28;20432;-71
2023/08/15 09:18:48;;;;;;;4.97;3.57;;;;;;;;;;5080910;28;20931;-70
2023/08/15 09:21:15;;;;;;;4.10;3.50;;;;;;;;;;5082545;28;20433;-70
2023/08/15 09:23:43;;;;;;;3.03;2.27;;;;;;;;;;5074146;28;20460;-74
2023/08/15 09:26:14;;;;;;;4.13;2.43;;;;;;;;;;5084572;28;20487;-70
2023/08/15 09:28:42;;;;;;;3.07;2.00;;;;;;;;;;5084534;28;20436;-70
2023/08/15 09:31:10;;;;;;;4.27;2.63;;;;;;;;;;5076140;28;20551;-71
2023/08/15 09:33:38;;;;;;;3.10;2.20;;;;;;;;;;5077644;28;20492;-71
2023/08/15 09:36:06;;;;;;;2.70;1.70;;;;;;;;;;5083824;28;20547;-70
2023/08/15 09:38:33;;;;;;;5.20;2.00;;;;;;;;;;5078717;28;20492;-71
2023/08/15 09:41:00;;;;;;;3.63;2.10;;;;;;;;;;5078729;28;20487;-74
2023/08/15 09:43:29;;;;;;;2.57;1.60;;;;;;;;;;5077880;28;20541;-70
2023/08/15 09:45:56;;;;;;;2.47;1.57;;;;;;;;;;5073843;28;20451;-71
2023/08/15 09:48:24;;;;;;;3.10;1.60;;;;;;;;;;5083651;28;20440;-71
2023/08/15 09:50:52;;;;;;;3.40;2.40;;;;;;;;;;5065978;28;20896;-70
2023/08/15 09:53:22;;;;;;;2.57;1.53;;;;;;;;;;5076048;28;20453;-70
2023/08/15 09:55:49;;;;;;;3.50;1.50;;;;;;;;;;5083127;28;20546;-71
2023/08/15 09:58:17;;;;;;;2.60;1.97;;;;;;;;;;5080870;28;20459;-71
2023/08/15 10:00:47;;;;;;;2.93;1.80;;;;;;;;;;5082196;28;20919;-71
2023/08/15 10:03:16;;;;;;;2.47;1.87;;;;;;;;;;5082961;28;20927;-70
2023/08/15 10:05:44;;;;;;;2.30;1.53;;;;;;;;;;5078506;28;20456;-71
2023/08/15 10:08:11;;;;;;;5.67;2.07;;;;;;;;;;5084554;28;20944;-70
2023/08/15 10:10:38;;;;;;;2.67;1.67;;;;;;;;;;5079625;28;20530;-71
2023/08/15 10:13:06;;;;;;;2.60;1.70;;;;;;;;;;5081743;28;20529;-71
2023/08/15 10:15:34;;;;;;;5.33;1.70;;;;;;;;;;5077923;28;20456;-71
2023/08/15 10:18:05;;;;;;;2.23;1.60;;;;;;;;;;5080925;28;20439;-71
2023/08/15 10:20:36;;;;;;;5.67;1.80;;;;;;;;;;5074862;28;20448;-70
2023/08/15 10:23:07;;;;;;;2.80;1.77;;;;;;;;;;5078730;28;21015;-71
2023/08/15 10:25:35;;;;;;;2.50;1.80;;;;;;;;;;5079109;28;21411;-71
2023/08/15 10:28:05;;;;;;;3.20;1.70;;;;;;;;;;5064721;28;20501;-70
2023/08/15 10:30:33;;;;;;;2.47;1.53;;;;;;;;;;5077566;28;20448;-72
2023/08/15 10:33:01;;;;;;;4.73;2.03;;;;;;;;;;5056788;28;20468;-70
2023/08/15 10:35:34;;;;;;;3.13;1.50;;;;;;;;;;5079195;28;20485;-70
2023/08/15 10:38:13;;;;;;;4.10;2.23;;;;;;;;;;5079683;28;20472;-70
2023/08/15 10:40:41;;;;;;;3.47;1.73;;;;;;;;;;5076569;28;21031;-70
2023/08/15 10:43:10;;;;;;;3.20;1.87;;;;;;;;;;5071233;28;20476;-71
2023/08/15 10:45:38;;;;;;;3.30;2.20;;;;;;;;;;5082351;28;20472;-72
2023/08/15 10:48:06;;;;;;;4.30;2.80;;;;;;;;;;5079623;28;20827;-71
2023/08/15 10:50:35;;;;;;;2.77;1.97;;;;;;;;;;5082792;28;20494;-71
2023/08/15 10:53:03;;;;;;;2.60;1.87;;;;;;;;;;5079776;28;20510;-72
2023/08/15 10:55:30;;;;;;;3.00;1.50;;;;;;;;;;5075823;28;20489;-71
2023/08/15 10:57:57;;;;;;;2.83;1.73;;;;;;;;;;5077534;28;20198;-71
2023/08/15 11:00:25;;;;;;;2.93;1.50;;;;;;;;;;5081449;28;20194;-70
2023/08/15 11:02:54;;;;;;;1.90;1.50;;;;;;;;;;5076095;28;20222;-70
2023/08/15 11:05:22;;;;;;;2.10;1.30;;;;;;;;;;5082376;28;20459;-69
2023/08/15 11:07:50;;;;;;;3.33;2.17;;;;;;;;;;5080135;28;20198;-71
2023/08/15 11:10:17;;;;;;;2.30;1.37;;;;;;;;;;5069848;28;20460;-69
2023/08/15 11:12:48;;;;;;;2.37;1.73;;;;;;;;;;5076923;28;20477;-69
2023/08/15 11:15:16;;;;;;;3.27;1.73;;;;;;;;;;5081233;28;20459;-69
2023/08/15 11:17:45;;;;;;;3.20;1.30;;;;;;;;;;5079667;28;20488;-70
2023/08/15 11:20:13;;;;;;;2.60;2.00;;;;;;;;;;5077643;28;20500;-71
2023/08/15 11:22:40;;;;;;;2.77;1.80;;;;;;;;;;5083819;28;20837;-70
2023/08/15 11:25:09;;;;;;;2.53;1.40;;;;;;;;;;5074290;28;20888;-70
2023/08/15 11:27:45;;;;;;;2.27;1.23;;;;;;;;;;5077807;28;20923;-70
2023/08/15 11:30:13;;;;;;;2.50;1.33;;;;;;;;;;5079142;28;20468;-70
2023/08/15 11:32:41;;;;;;;3.07;1.97;;;;;;;;;;5072818;28;20479;-70
2023/08/15 11:35:08;;;;;;;2.30;1.63;;;;;;;;;;5083521;28;20451;-68
2023/08/15 11:37:36;;;;;;;2.10;1.40;;;;;;;;;;5082369;28;20451;-71
2023/08/15 11:40:03;;;;;;;2.20;1.60;;;;;;;;;;5076871;28;20441;-70
2023/08/15 11:42:31;;;;;;;2.53;1.93;;;;;;;;;;5079547;28;20479;-67
2023/08/15 11:45:02;;;;;;;3.40;1.97;;;;;;;;;;5078298;28;20465;-67
2023/08/15 11:47:31;;;;;;;3.87;1.90;;;;;;;;;;5081765;28;20432;-67
2023/08/15 11:49:58;;;;;;;3.47;1.93;;;;;;;;;;5066617;28;20682;-67
2023/08/15 11:52:25;;;;;;;2.90;1.40;;;;;;;;;;5076999;28;20475;-67
2023/08/15 11:54:52;;;;;;;4.07;1.80;;;;;;;;;;5072682;28;20599;-68
2023/08/15 11:57:35;;;;;;;2.70;1.97;;;;;;;;;;5074444;28;20598;-67
2023/08/15 12:00:04;;;;;;;2.80;1.90;;;;;;;;;;5079153;28;20190;-67
2023/08/15 12:02:31;;;;;;;3.10;1.93;;;;;;;;;;5073112;28;20239;-67
2023/08/15 12:05:00;;;;;;;3.60;2.40;;;;;;;;;;5080084;28;20205;-67
2023/08/15 12:07:31;;;;;;;2.67;2.20;;;;;;;;;;5080010;28;20567;-67
2023/08/15 12:09:58;;;;;;;3.40;2.63;;;;;;;;;;5075479;28;20199;-67
2023/08/15 12:12:25;;;;;;;4.80;2.73;;;;;;;;;;5076640;28;20568;-68
2023/08/15 12:14:52;;;;;;;3.23;2.07;;;;;;;;;;5078176;28;20205;-67
2023/08/15 12:17:21;;;;;;;4.07;2.70;;;;;;;;;;5078960;28;20210;-68
2023/08/15 12:19:48;;;;;;;4.07;2.47;;;;;;;;;;5079082;28;20201;-68
2023/08/15 12:22:15;;;;;;;3.42;2.67;;;;;;;;;;5067810;28;20227;-68
2023/08/15 12:24:42;;;;;;;3.13;2.80;;;;;;;;;;5082924;28;20194;-68
2023/08/15 12:27:09;;;;;;;4.65;2.80;;;;;;;;;;5073136;28;20198;-68
2023/08/15 12:29:36;;;;;;;3.90;3.20;;;;;;;;;;5074448;28;20198;-68
2023/08/15 12:32:03;;;;;;;4.63;3.03;;;;;;;;;;5078235;28;20245;-67
2023/08/15 12:34:32;;;;;;;3.47;2.80;;;;;;;;;;5082227;28;20617;-67
2023/08/15 12:36:59;;;;;;;2.73;2.27;;;;;;;;;;5085622;28;20229;-68
2023/08/15 12:39:26;;;;;;;3.40;2.63;;;;;;;;;;5079384;28;20202;-68
2023/08/15 12:41:53;;;;;;;4.20;3.07;;;;;;;;;;5078207;28;20221;-68
2023/08/15 12:44:20;;;;;;;2.83;2.40;;;;;;;;;;5084164;28;20194;-67
2023/08/15 12:46:47;;;;;;;2.80;2.13;;;;;;;;;;5083115;28;20194;-67
2023/08/15 12:49:14;;;;;;;4.57;3.10;;;;;;;;;;5086176;28;20202;-68
2023/08/15 12:51:43;;;;;;;2.40;2.00;;;;;;;;;;5081266;28;20601;-67
2023/08/15 12:54:10;;;;;;;2.78;1.88;;;;;;;;;;5081890;28;20194;-68
2023/08/15 12:56:37;;;;;;;3.40;2.08;;;;;;;;;;5081042;28;20198;-67
2023/08/15 12:59:04;;;;;;;3.72;2.28;;;;;;;;;;5085433;28;20205;-68
2023/08/15 13:01:31;;;;;;;2.40;2.03;;;;;;;;;;5080513;28;20212;-67
2023/08/15 13:03:58;;;;;;;5.50;2.33;;;;;;;;;;5082266;28;20225;-68
2023/08/15 13:06:25;;;;;;;2.97;2.45;;;;;;;;;;5080805;28;20672;-68
2023/08/15 13:08:54;;;;;;;3.22;2.20;;;;;;;;;;5083927;28;20205;-68
2023/08/15 13:11:21;;;;;;;2.40;1.70;;;;;;;;;;5080977;28;20198;-68
2023/08/15 13:13:48;;;;;;;3.40;2.00;;;;;;;;;;5078675;28;20207;-68
2023/08/15 13:16:15;;;;;;;3.10;1.85;;;;;;;;;;5089598;28;20194;-69
2023/08/15 13:18:43;;;;;;;3.78;2.25;;;;;;;;;;5082423;28;20225;-68
2023/08/15 13:21:10;;;;;;;2.63;1.77;;;;;;;;;;5081285;28;20201;-73
2023/08/15 13:23:38;;;;;;;2.30;1.90;;;;;;;;;;5070175;28;20190;-75
2023/08/15 13:26:06;;;;;;;4.53;2.28;;;;;;;;;;5078266;28;20190;-71
2023/08/15 13:28:33;;;;;;;2.30;1.80;;;;;;;;;;5081080;28;20790;-71
2023/08/15 13:31:00;;;;;;;2.92;2.20;;;;;;;;;;5081426;28;20203;-72
2023/08/15 13:33:27;;;;;;;2.33;1.77;;;;;;;;;;5076477;28;20218;-71
2023/08/15 13:35:54;;;;;;;3.58;1.92;;;;;;;;;;5084561;28;20763;-71
2023/08/15 13:38:21;;;;;;;2.80;1.87;;;;;;;;;;5065992;28;20190;-71
2023/08/15 13:40:48;;;;;;;3.25;2.00;;;;;;;;;;5082594;28;20207;-72
2023/08/15 13:43:17;;;;;;;5.65;2.38;;;;;;;;;;5083453;28;20210;-72
2023/08/15 13:45:44;;;;;;;4.50;2.00;;;;;;;;;;5082070;28;20206;-74
2023/08/15 13:48:11;;;;;;;2.30;1.92;;;;;;;;;;5083963;28;20232;-74
2023/08/15 13:50:39;;;;;;;3.90;2.60;;;;;;;;;;5084863;28;20194;-73
2023/08/15 13:53:06;;;;;;;2.50;2.30;;;;;;;;;;5079192;28;20630;-73
2023/08/15 13:55:33;;;;;;;3.40;2.53;;;;;;;;;;5080459;28;20675;-73
2023/08/15 13:58:00;;;;;;;3.75;2.70;;;;;;;;;;5078878;28;20198;-73
2023/08/15 14:00:32;;;;;;;3.65;2.72;;;;;;;;;;5077623;28;20550;-73
2023/08/15 14:02:59;;;;;;;4.30;3.08;;;;;;;;;;5067950;28;20243;-73
2023/08/15 14:05:26;;;;;;;5.63;3.15;;;;;;;;;;5078161;28;20218;-72
2023/08/15 14:07:53;;;;;;;3.33;2.97;;;;;;;;;;5083776;28;20214;-72
2023/08/15 14:10:22;;;;;;;4.22;2.70;;;;;;;;;;5083221;28;20189;-72
2023/08/15 14:12:49;;;;;;;4.55;2.85;;;;;;;;;;5076919;28;20562;-72
2023/08/15 14:15:16;;;;;;;3.45;2.70;;;;;;;;;;5083338;28;20664;-72
2023/08/15 14:17:45;;;;;;;3.80;2.38;;;;;;;;;;5078056;28;20194;-72
2023/08/15 14:20:12;;;;;;;2.67;2.05;;;;;;;;;;5081968;28;20308;-71
2023/08/15 14:22:39;;;;;;;4.13;3.15;;;;;;;;;;5080620;28;20211;-72
2023/08/15 14:25:07;;;;;;;3.50;2.92;;;;;;;;;;5070595;28;20202;-71
2023/08/15 14:27:34;;;;;;;3.13;2.70;;;;;;;;;;5079166;28;20202;-72
2023/08/15 14:30:01;;;;;;;2.97;2.13;;;;;;;;;;5076207;28;20678;-72
2023/08/15 14:32:28;;;;;;;3.92;2.92;;;;;;;;;;5080463;28;20214;-73
2023/08/15 14:34:56;;;;;;;3.20;1.98;;;;;;;;;;5075614;28;20202;-72
2023/08/15 14:37:23;;;;;;;7.72;2.65;;;;;;;;;;5082071;28;20206;-72
2023/08/15 14:39:50;;;;;;;2.95;2.65;;;;;;;;;;5083490;28;20202;-72
2023/08/15 14:42:17;;;;;;;3.58;2.97;;;;;;;;;;5079165;28;20210;-72
2023/08/15 14:44:45;;;;;;;3.38;2.55;;;;;;;;;;5077305;28;20228;-71
2023/08/15 14:47:15;;;;;;;3.65;2.60;;;;;;;;;;5080610;28;20418;-72